Data for 02/13/2006

Time Sea-Level Adjusted Pressure Absolute Pressure Temperature Relative Humidity Dew Point   
(mb) (inHg) (mb) (inHg) (C) (F) (%) (C) (F)
00:05 1025 30.27 854 25.22 -0.7 30.7 52 -9.5 15
00:10 1025 30.27 854 25.22 -0.9 30.3 51 -9.9 14.2
00:15 1025 30.27 854 25.22 -1.1 30.1 50 -10.3 13.4
00:20 1025 30.27 854 25.22 -0.9 30.4 48 -10.5 13.1
00:25 1025 30.27 854 25.22 -0.7 30.8 48 -10.5 13.2
00:30 1025 30.27 854 25.22 -0.5 31 47 -10.4 13.3
00:35 1025 30.27 854 25.22 -0.8 30.6 49 -10.1 13.8
00:40 1025 30.27 854 25.22 -0.9 30.4 49 -10.4 13.3
00:45 1025 30.27 854 25.22 -1 30.2 49 -10.3 13.5
00:50 1025 30.27 854 25.22 -1.2 29.9 51 -10.2 13.7
00:55 1025 30.27 854 25.22 -1.1 30.1 50 -10.2 13.7
01:00 1025 30.27 854 25.22 -1.1 30 52 -9.8 14.3
01:05 1025 30.27 854 25.22 -1.1 30 50 -10.2 13.6
01:10 1025 30.27 854 25.22 -1 30.2 49 -10.4 13.3
01:15 1025 30.27 854 25.22 -1.2 29.8 52 -9.8 14.4
01:20 1025 30.27 854 25.22 -1.6 29.1 53 -9.9 14.2
01:25 1025 30.27 854 25.22 -1.9 28.7 54 -10 14
01:30 1025 30.27 854 25.22 -1.7 28.9 55 -9.5 14.8
01:35 1025 30.27 854 25.22 -1.3 29.7 51 -10.3 13.5
01:40 1025 30.27 854 25.22 -1.5 29.3 55 -9.5 15
01:45 1025 30.27 854 25.22 -1.9 28.5 54 -10 14
01:50 1025 30.27 854 25.22 -2.1 28.2 55 -9.9 14.2
01:55 1025 30.27 854 25.22 -2.4 27.7 57 -9.8 14.3
02:00 1025 30.27 854 25.22 -2.1 28.2 55 -10 14
02:05 1025 30.27 854 25.22 -2.1 28.3 56 -9.7 14.5
02:10 1025 30.27 854 25.22 -2.3 27.9 54 -10.3 13.4
02:15 1025 30.27 854 25.22 -2.4 27.7 59 -9.3 15.2
02:20 1025 30.27 854 25.22 -2.2 28.1 54 -10.4 13.4
02:25 1025 30.27 854 25.22 -2.3 27.8 55 -10.1 13.8
02:30 1025 30.27 854 25.22 -2.4 27.6 56 -10 14
02:35 1025 30.27 854 25.22 -2.3 27.9 54 -10.3 13.4
02:40 1025 30.27 854 25.22 -2.3 27.8 54 -10.4 13.3
02:45 1025 30.27 854 25.22 -2.1 28.2 52 -10.8 12.5
02:50 1025 30.27 854 25.22 -1.6 29.1 48 -11.1 11.9
02:55 1025 30.27 854 25.22 -1.8 28.8 47 -11.5 11.2
03:00 1025 30.27 854 25.22 -1.6 29.1 49 -11.1 12
03:05 1025 30.27 854 25.22 -1.4 29.4 44 -12.1 10.3
03:10 1025 30.27 854 25.22 -1 30.1 44 -11.8 10.7
03:15 1025 30.27 854 25.22 -1.2 29.8 45 -11.6 11.1
03:20 1025 30.27 854 25.22 -2.4 27.7 49 -11.7 11
03:25 1025 30.27 854 25.22 -2.9 26.8 50 -12 10.4
03:30 1025 30.27 854 25.22 -2.8 27 49 -12 10.4
03:35 1025 30.27 854 25.22 -2.7 27.1 49 -12.1 10.2
03:40 1025 30.27 854 25.22 -2.3 27.9 47 -12.1 10.2
03:45 1025 30.27 854 25.22 -1.9 28.5 45 -12.3 9.9
03:50 1025 30.27 854 25.22 -2 28.4 46 -12.2 10.1
03:55 1025 30.27 854 25.22 -2.7 27.1 48 -12.2 10
04:00 1025 30.27 854 25.22 -2.9 26.8 48 -12.5 9.4
04:05 1025 30.27 854 25.22 -2.7 27.1 48 -12.3 9.9
04:10 1025 30.27 854 25.22 -2.7 27.1 48 -12.2 10.1
04:15 1025 30.27 854 25.22 -2.7 27.2 47 -12.5 9.5
04:20 1025 30.27 854 25.22 -2.6 27.3 47 -12.5 9.5
04:25 1025 30.27 854 25.22 -2.8 27 50 -11.8 10.7
04:30 1025 30.27 854 25.22 -3.1 26.4 53 -11.4 11.5
04:35 1025 30.27 854 25.22 -3.1 26.4 54 -11.1 12
04:40 1025 30.27 854 25.22 -3.2 26.3 53 -11.4 11.4
04:45 1025 30.27 854 25.22 -3.3 26 54 -11.5 11.4
04:50 1025 30.27 854 25.22 -3.2 26.2 57 -10.6 12.9
04:55 1025 30.27 854 25.22 -3.1 26.4 54 -11.2 11.8
05:00 1025 30.27 854 25.22 -2.9 26.8 53 -11.3 11.7
05:05 1025 30.27 854 25.22 -2.7 27.2 51 -11.5 11.3
05:10 1025 30.27 854 25.22 -3 26.5 53 -11.3 11.7
05:15 1025 30.27 854 25.22 -3.6 25.5 56 -11.3 11.7
05:20 1025 30.27 854 25.22 -4 24.8 55 -11.7 10.9
05:25 1025 30.27 854 25.22 -3.8 25.1 53 -12 10.5
05:30 1025 30.27 854 25.22 -3.6 25.5 53 -11.9 10.7
05:35 1025 30.27 854 25.22 -3.5 25.7 53 -11.8 10.8
05:40 1025 30.27 854 25.22 -3.6 25.5 55 -11.5 11.3
05:45 1025 30.27 854 25.22 -3.4 25.9 52 -12 10.4
05:50 1025 30.27 854 25.22 -3.2 26.3 51 -11.9 10.7
05:55 1025 30.27 854 25.22 -3.2 26.2 52 -11.9 10.6
06:00 1025 30.27 854 25.22 -3.3 26.1 52 -11.8 10.7
06:05 1024 30.24 854 25.22 -3.4 25.9 51 -12.1 10.2
06:10 1024 30.24 853 25.19 -3.5 25.7 53 -11.9 10.6
06:15 1024 30.24 854 25.22 -3.8 25.1 55 -11.5 11.3
06:20 1024 30.24 854 25.22 -3.6 25.5 55 -11.5 11.4
06:25 1024 30.24 853 25.19 -3.5 25.7 55 -11.4 11.5
06:30 1024 30.24 853 25.19 -3.4 25.9 54 -11.4 11.4
06:35 1024 30.24 853 25.19 -3.3 26 53 -11.5 11.2
06:40 1024 30.24 854 25.22 -3.3 26.1 50 -12.3 9.8
06:45 1024 30.24 854 25.22 -3.4 25.9 50 -12.3 9.8
06:50 1024 30.24 854 25.22 -3.6 25.4 51 -12.4 9.6
06:55 1024 30.24 854 25.22 -3.8 25.2 50 -12.7 9.1
07:00 1024 30.24 854 25.22 -3.6 25.6 49 -12.9 8.7
07:05 1024 30.24 854 25.22 -3.3 26.1 47 -13 8.6
07:10 1024 30.24 854 25.22 -3.6 25.5 49 -12.9 8.7
07:15 1025 30.27 854 25.22 -3.9 25 49 -13.1 8.5
07:20 1025 30.27 854 25.22 -3.7 25.4 48 -13.3 8.1
07:25 1025 30.27 854 25.22 -4.3 24.3 50 -13.3 8.1
07:30 1025 30.27 854 25.22 -4.2 24.4 49 -13.5 7.7
07:35 1025 30.27 854 25.22 -4 24.8 49 -13.3 8.1
07:40 1025 30.27 854 25.22 -4.3 24.3 51 -13.1 8.5
07:45 1025 30.27 854 25.22 -4.7 23.6 54 -12.7 9.2
07:50 1025 30.27 854 25.22 -4.3 24.2 51 -13.1 8.5
07:55 1025 30.27 854 25.22 -3.7 25.3 52 -12.1 10.2
08:00 1024 30.24 854 25.22 -3.2 26.2 51 -12.1 10.3
08:05 1024 30.24 853 25.19 -3.3 26.1 48 -12.7 9.1
08:10 1024 30.24 853 25.19 -3.4 25.9 51 -12.2 10
08:15 1024 30.24 853 25.19 -3.1 26.5 51 -11.9 10.5
08:20 1024 30.24 853 25.19 -2.9 26.8 49 -12.1 10.2
08:25 1024 30.24 853 25.19 -2.7 27.1 48 -12.2 10
08:30 1024 30.24 853 25.19 -2.6 27.4 47 -12.3 9.9
08:35 1024 30.24 853 25.19 -2 28.4 47 -11.9 10.5
08:40 1024 30.24 853 25.19 -1.3 29.7 43 -12.3 9.9
08:45 1024 30.24 853 25.19 -1.2 29.9 44 -11.9 10.5
08:50 1024 30.24 853 25.19 -1.7 28.9 47 -11.7 11
08:55 1024 30.24 853 25.19 -2 28.4 46 -12.1 10.1
09:00 1024 30.24 853 25.19 -1.4 29.5 42 -12.7 9.2
09:05 1024 30.24 853 25.19 -0.2 31.7 39 -12.5 9.5
09:10 1024 30.24 853 25.19 0.3 32.6 41 -11.3 11.6
09:15 1024 30.24 853 25.19 -0.8 30.6 45 -11.4 11.5
09:20 1024 30.24 853 25.19 -0.6 31 40 -12.6 9.3
09:25 1024 30.24 853 25.19 -0.2 31.6 39 -12.5 9.6
09:30 1024 30.24 853 25.19 -0.6 31 42 -11.9 10.5
09:35 1024 30.24 853 25.19 -0.2 31.6 39 -12.5 9.5
09:40 1024 30.24 853 25.19 0.8 33.4 37 -12.3 9.9
09:45 1024 30.24 853 25.19 1.3 34.4 37 -11.8 10.7
09:50 1024 30.24 853 25.19 1.7 35 35 -12.2 10.1
09:55 1024 30.24 853 25.19 1.5 34.7 35 -12.5 9.5
10:00 1024 30.24 853 25.19 1.4 34.5 36 -12.2 10
10:05 1024 30.24 853 25.19 1.4 34.5 37 -11.7 10.9
10:10 1024 30.24 853 25.19 2.1 35.9 34 -12.1 10.2
10:15 1024 30.24 853 25.19 2.2 36 35 -11.8 10.8
10:20 1024 30.24 853 25.19 2.4 36.3 33 -12.3 9.9
10:25 1024 30.24 853 25.19 2.6 36.7 33 -12.3 9.9
10:30 1024 30.24 853 25.19 2.7 36.9 33 -12.2 10.1
10:35 1024 30.24 853 25.19 2.9 37.2 32 -12.3 9.9
10:40 1024 30.24 853 25.19 3.3 37.9 31 -12.2 10.1
10:45 1024 30.24 853 25.19 3.5 38.2 31 -12.2 10.1
10:50 1024 30.24 853 25.19 3.3 38 32 -12 10.4
10:55 1024 30.24 853 25.19 3.3 37.9 32 -11.8 10.7
11:00 1023 30.21 853 25.19 2.9 37.2 34 -11.6 11.1
11:05 1023 30.21 852 25.16 3.4 38.2 32 -12 10.5
11:10 1023 30.21 852 25.16 4 39.1 32 -11.2 11.9
11:15 1023 30.21 852 25.16 3.9 39 32 -11.4 11.4
11:20 1023 30.21 852 25.16 4.2 39.5 32 -11.3 11.7
11:25 1023 30.21 852 25.16 4.2 39.6 33 -10.8 12.6
11:30 1023 30.21 852 25.16 2.9 37.3 37 -10.4 13.3
11:35 1023 30.21 852 25.16 2.8 37.1 35 -11.4 11.6
11:40 1023 30.21 852 25.16 3.5 38.3 34 -11 12.3
11:45 1023 30.21 852 25.16 3.8 38.8 32 -11.3 11.7
11:50 1022 30.18 852 25.16 3.8 38.9 31 -11.8 10.7
11:55 1022 30.18 851 25.13 3.6 38.5 31 -11.8 10.7
12:00 1022 30.18 851 25.13 3.6 38.4 31 -11.9 10.5
12:05 1022 30.18 851 25.13 3.5 38.4 32 -11.6 11.1
12:10 1022 30.18 851 25.13 3.9 38.9 31 -11.7 10.9
12:15 1022 30.18 851 25.13 4.3 39.8 30 -11.9 10.7
12:20 1022 30.18 851 25.13 4.7 40.5 29 -11.7 10.9
12:25 1021 30.15 851 25.13 4.8 40.6 30 -11.6 11.2
12:30 1021 30.15 850 25.1 4.7 40.5 29 -11.8 10.8
12:35 1021 30.15 850 25.1 5.3 41.5 28 -11.8 10.7
12:40 1021 30.15 850 25.1 5.5 41.8 29 -11.4 11.4
12:45 1021 30.15 850 25.1 5.6 42.1 28 -11.4 11.5
12:50 1021 30.15 850 25.1 5.9 42.6 27 -11.7 10.9
12:55 1020 30.12 850 25.1 5.8 42.4 27 -11.9 10.5
13:00 1020 30.12 849 25.07 5.6 42.1 27 -12 10.4
13:05 1020 30.12 849 25.07 5.9 42.7 24 -13.3 8
13:10 1020 30.12 849 25.07 5.8 42.4 25 -12.9 8.7
13:15 1020 30.12 849 25.07 6.2 43.2 24 -13 8.5
13:20 1020 30.12 849 25.07 6.2 43.1 25 -12.2 10
13:25 1019 30.09 849 25.07 5.8 42.4 27 -12.1 10.3
13:30 1019 30.09 848 25.04 6.5 43.6 26 -11.8 10.8
13:35 1019 30.09 848 25.04 6.3 43.3 27 -11.4 11.5
13:40 1019 30.09 848 25.04 6.2 43.1 27 -11.3 11.6
13:45 1019 30.09 848 25.04 6.7 44 27 -11 12.2
13:50 1019 30.09 848 25.04 6.7 44.1 29 -10.3 13.5
13:55 1019 30.09 848 25.04 6.9 44.3 30 -9.7 14.5
14:00 1018 30.06 848 25.04 6.7 44.1 29 -10 14.1
14:05 1018 30.06 847 25.01 6.5 43.6 31 -9.5 14.9
14:10 1018 30.06 847 25.01 6.3 43.3 30 -9.9 14.2
14:15 1018 30.06 847 25.01 6.2 43.1 31 -9.7 14.5
14:20 1018 30.06 847 25.01 6 42.9 33 -9.2 15.4
14:25 1018 30.06 847 25.01 5.3 41.5 33 -9.9 14.3
14:30 1018 30.06 847 25.01 4.6 40.3 34 -10 13.9
14:35 1018 30.06 847 25.01 4.1 39.4 34 -10.5 13.2
14:40 1018 30.06 847 25.01 4.2 39.6 34 -10.4 13.2
14:45 1018 30.06 847 25.01 4.5 40.1 33 -10.5 13
14:50 1017 30.03 847 25.01 4.9 40.9 31 -10.9 12.3
14:55 1017 30.03 847 25.01 4.6 40.4 31 -11.2 11.8
15:00 1017 30.03 847 25.01 4 39.1 30 -12.3 9.8
15:05 1017 30.03 847 25.01 4 39.1 29 -12.3 9.8
15:10 1017 30.03 846 24.98 4.1 39.3 30 -12 10.4
15:15 1017 30.03 846 24.98 4.1 39.3 32 -11.4 11.5
15:20 1017 30.03 846 24.98 4.1 39.4 32 -11.1 12.1
15:25 1017 30.03 846 24.98 4.5 40.1 34 -10.1 13.8
15:30 1017 30.03 846 24.98 5.2 41.3 32 -10.4 13.3
15:35 1017 30.03 846 24.98 5.4 41.8 30 -10.9 12.4
15:40 1017 30.03 846 24.98 5.2 41.3 29 -11.4 11.5
15:45 1017 30.03 846 24.98 4.9 40.9 30 -11.4 11.6
15:50 1017 30.03 846 24.98 4.7 40.5 32 -10.6 12.9
15:55 1017 30.03 846 24.98 4.5 40.1 34 -10.2 13.7
16:00 1016 30 846 24.98 4.6 40.2 33 -10.4 13.3
16:05 1016 30 845 24.95 4.7 40.4 33 -10.4 13.2
16:10 1016 30 845 24.95 4.6 40.3 30 -11.3 11.6
16:15 1016 30 845 24.95 4.7 40.4 28 -12.2 10
16:20 1016 30 845 24.95 4.8 40.6 30 -11.6 11.1
16:25 1016 30 845 24.95 5 41 29 -11.8 10.7
16:30 1016 30 845 24.95 5.5 41.8 28 -11.8 10.7
16:35 1016 30 845 24.95 5.6 42 28 -11.7 11
16:40 1015 29.97 845 24.95 5.4 41.7 27 -12 10.3
16:45 1015 29.97 845 24.95 5.1 41.1 30 -11.3 11.6
16:50 1015 29.97 844 24.92 5 41.1 29 -11.4 11.5
16:55 1015 29.97 844 24.92 5.1 41.1 30 -11.3 11.7
17:00 1015 29.97 844 24.92 5.2 41.4 30 -11.2 11.8
17:05 1015 29.97 844 24.92 5.4 41.8 30 -10.8 12.5
17:10 1015 29.97 844 24.92 5.2 41.4 31 -10.5 13
17:15 1015 29.97 844 24.92 4.8 40.6 33 -10.2 13.7
17:20 1014 29.94 844 24.92 4.7 40.5 33 -10.1 13.9
17:25 1014 29.94 844 24.92 4.3 39.8 35 -9.8 14.3
17:30 1014 29.94 843 24.89 4 39.2 37 -9.6 14.8
17:35 1014 29.94 843 24.89 3.9 39 34 -10.4 13.2
17:40 1014 29.94 843 24.89 4 39.2 33 -10.8 12.6
17:45 1014 29.94 843 24.89 4.3 39.8 32 -10.8 12.6
17:50 1014 29.94 843 24.89 4.1 39.4 39 -8.7 16.3
17:55 1014 29.94 843 24.89 3.7 38.6 40 -8.7 16.4
18:00 1014 29.94 843 24.89 3.1 37.6 41 -8.9 16
18:05 1014 29.94 843 24.89 3.1 37.6 40 -9.3 15.2
18:10 1014 29.94 843 24.89 3.2 37.8 39 -9.3 15.3
18:15 1014 29.94 843 24.89 3.6 38.4 37 -9.9 14.2
18:20 1014 29.94 843 24.89 4.2 39.6 33 -10.7 12.7
18:25 1013 29.91 843 24.89 6.1 43.1 27 -11.6 11.1
18:30 1013 29.91 843 24.89 6.8 44.3 27 -11.1 12
18:35 1013 29.91 842 24.86 6.9 44.4 26 -11.1 12
18:40 1013 29.91 842 24.86 6.8 44.2 28 -10.4 13.3
18:45 1013 29.91 842 24.86 6.5 43.7 28 -10.6 12.9
18:50 1013 29.91 842 24.86 6.5 43.7 29 -10.1 13.8
18:55 1013 29.91 842 24.86 6.2 43.1 31 -9.8 14.4
19:00 1013 29.91 842 24.86 5.9 42.6 32 -9.8 14.4
19:05 1013 29.91 842 24.86 5.6 42.1 32 -9.7 14.6
19:10 1013 29.91 842 24.86 5.4 41.7 32 -9.8 14.3
19:15 1013 29.91 842 24.86 5.3 41.6 34 -9.4 15
19:20 1013 29.91 842 24.86 5.5 41.9 26 -12.4 9.7
19:25 1013 29.91 842 24.86 6.3 43.3 25 -12.2 10.1
19:30 1012 29.88 842 24.86 6.3 43.3 29 -10.6 12.9
19:35 1012 29.88 842 24.86 5.5 41.9 32 -9.8 14.3
19:40 1012 29.88 841 24.83 5.3 41.5 30 -11.1 12
19:45 1012 29.88 841 24.83 5.5 42 27 -11.9 10.6
19:50 1012 29.88 841 24.83 6 42.7 28 -11.4 11.5
19:55 1012 29.88 841 24.83 6 42.8 27 -11.5 11.2
20:00 1012 29.88 841 24.83 6.1 43 28 -11.2 11.9
20:05 1012 29.88 841 24.83 6.1 42.9 29 -10.8 12.5
20:10 1012 29.88 841 24.83 5.9 42.6 28 -11.1 12
20:15 1012 29.88 841 24.83 5.8 42.5 30 -10.6 13
20:20 1012 29.88 841 24.83 5.8 42.4 31 -10.3 13.5
20:25 1012 29.88 841 24.83 5.6 42.2 31 -10.3 13.4
20:30 1011 29.85 841 24.83 5.6 42 30 -10.6 12.9
20:35 1011 29.85 841 24.83 5.6 42 31 -10.1 13.8
20:40 1011 29.85 841 24.83 5.4 41.8 32 -9.9 14.2
20:45 1011 29.85 840 24.81 5.3 41.5 32 -10.2 13.6
20:50 1011 29.85 840 24.81 5.2 41.4 31 -10.8 12.6
20:55 1011 29.85 840 24.81 5.3 41.5 30 -10.9 12.4
21:00 1011 29.85 840 24.81 5.3 41.5 31 -10.7 12.7
21:05 1011 29.85 840 24.81 5.3 41.5 31 -10.7 12.8
21:10 1011 29.85 840 24.81 5.3 41.6 30 -10.7 12.7
21:15 1011 29.85 840 24.81 5.2 41.4 33 -9.7 14.5
21:20 1011 29.85 840 24.81 4.9 40.9 33 -10.2 13.7
21:25 1011 29.85 840 24.81 5.1 41.2 32 -10.3 13.4
21:30 1011 29.85 840 24.81 5.1 41.2 32 -10.3 13.5
21:35 1011 29.85 840 24.81 5.1 41.1 32 -10.4 13.3
21:40 1011 29.85 840 24.81 5.1 41.1 33 -10 13.9
21:45 1011 29.85 840 24.81 5 40.9 33 -10 14
21:50 1011 29.85 840 24.81 4.9 40.8 35 -9.4 15
21:55 1011 29.85 840 24.81 4.8 40.6 35 -9.2 15.4
22:00 1011 29.85 840 24.81 4.7 40.4 38 -8.4 17
22:05 1011 29.85 840 24.81 4.6 40.3 40 -8 17.6
22:10 1011 29.85 840 24.81 4.5 40.1 41 -7.6 18.3
22:15 1011 29.85 840 24.81 4.2 39.5 42 -7.5 18.4
22:20 1011 29.85 840 24.81 4.2 39.6 41 -7.8 18
22:25 1011 29.85 840 24.81 4.1 39.4 43 -7.3 18.9
22:30 1011 29.85 840 24.81 4.1 39.4 43 -7.3 18.9
22:35 1011 29.85 840 24.81 4.1 39.3 46 -6.5 20.4
22:40 1011 29.85 840 24.81 3.7 38.7 49 -6.1 21
22:45 1011 29.85 840 24.81 3.5 38.3 50 -6 21.2
22:50 1011 29.85 840 24.81 3.5 38.3 49 -6.1 21
22:55 1011 29.85 840 24.81 3.5 38.4 50 -5.9 21.5
23:00 1011 29.85 840 24.81 3.4 38 52 -5.6 21.9
23:05 1011 29.85 840 24.81 3.1 37.5 53 -5.6 21.8
23:10 1011 29.85 840 24.81 2.7 36.8 53 -5.9 21.4
23:15 1011 29.85 841 24.83 2.6 36.6 59 -4.6 23.7
23:20 1011 29.85 841 24.83 2.4 36.2 68 -3 26.6
23:25 1011 29.85 841 24.83 1.9 35.4 70 -3 26.6
23:30 1011 29.85 841 24.83 1.6 34.9 74 -2.6 27.4
23:35 1012 29.88 841 24.83 1.3 34.4 76 -2.3 27.8
23:40 1011 29.85 841 24.83 1.1 33.9 79 -2.1 28.2
23:45 1011 29.85 841 24.83 0.8 33.4 82 -2 28.4
23:50 1011 29.85 841 24.83 0.3 32.5 87 -1.6 29.2
23:55 1011 29.85 840 24.81 0 32.1 88 -1.8 28.8
24:00 1011 29.85 841 24.83 -0.1 31.9 87 -2 28.5